createdAt,value
2019-05-19T01:03:32.820Z,82.11
2019-05-19T02:30:44.490Z,84.46
2019-05-19T04:23:32.641Z,87.04
2019-05-19T04:26:02.190Z,87.28
2019-05-19T04:28:53.567Z,87.46
2019-05-19T04:31:25.745Z,87.56
2019-05-19T04:34:10.651Z,87.68
2019-05-19T04:36:42.751Z,87.79
2019-05-19T04:39:16.675Z,87.89
2019-05-19T04:58:01.315Z,88.34
2019-05-19T05:33:52.642Z,83.07
2019-05-19T05:36:23.482Z,81.58
2019-05-19T05:45:49.563Z,71.87
2019-05-19T05:51:16.827Z,61.29
2019-05-19T06:02:36.910Z,45.84
2019-05-19T06:05:08.077Z,44.47
2019-05-19T06:07:42.840Z,41.66
2019-05-19T06:10:12.723Z,39.68
2019-05-19T06:12:41.685Z,37.06
2019-05-19T06:15:14.450Z,35.55
2019-05-19T06:17:49.011Z,34.90
2019-05-19T06:20:19.055Z,34.56
2019-05-19T06:22:56.634Z,34.50
2019-05-19T06:25:18.976Z,33.62
2019-05-19T06:27:48.042Z,33.34
2019-05-19T06:30:19.825Z,36.05
2019-05-19T06:32:51.061Z,36.55
2019-05-19T06:35:20.025Z,34.44
2019-05-19T06:37:48.912Z,32.56
2019-05-19T06:40:18.253Z,31.24
2019-05-19T06:42:47.221Z,31.48
2019-05-19T06:45:16.990Z,30.58
2019-05-19T06:47:46.436Z,29.39
2019-05-19T06:50:17.072Z,30.39
2019-05-19T06:52:46.020Z,30.95
2019-05-19T06:55:15.154Z,30.61
2019-05-19T06:57:44.094Z,29.46
2019-05-19T07:00:14.791Z,29.05
2019-05-19T07:02:43.879Z,29.74
2019-05-19T07:05:15.200Z,29.05
2019-05-19T07:07:44.046Z,29.94
2019-05-19T07:10:12.982Z,32.49
2019-05-19T07:12:43.332Z,32.89
2019-05-19T07:15:12.642Z,30.69
2019-05-19T07:17:41.829Z,31.41
2019-05-19T07:20:13.208Z,34.24
2019-05-19T07:22:42.276Z,34.29
2019-05-19T07:25:11.243Z,36.15
2019-05-19T07:27:40.442Z,36.20
2019-05-19T07:30:09.633Z,35.38
2019-05-19T07:32:41.740Z,38.15
2019-05-19T07:35:10.973Z,38.15
2019-05-19T07:37:40.147Z,38.33
2019-05-19T07:40:12.358Z,37.05
2019-05-19T07:42:41.195Z,38.13
2019-05-19T07:45:10.365Z,38.69
2019-05-19T07:47:41.450Z,39.07
2019-05-19T07:50:10.587Z,37.58
2019-05-19T07:52:39.501Z,37.84
2019-05-19T07:55:09.349Z,39.00
2019-05-19T07:57:38.213Z,38.51
2019-05-19T08:00:10.270Z,38.61
2019-05-19T08:02:39.220Z,41.30
2019-05-19T08:05:10.906Z,39.56
2019-05-19T08:07:49.343Z,40.57
2019-05-19T08:10:18.316Z,41.04
2019-05-19T08:12:49.644Z,40.32
2019-05-19T08:15:22.529Z,37.25
2019-05-19T08:17:52.026Z,39.85
2019-05-19T08:26:06.403Z,39.21
2019-05-19T08:40:06.956Z,39.28
2019-05-19T08:54:28.248Z,39.88
2019-05-19T08:56:57.379Z,37.94
2019-05-19T09:08:29.097Z,37.22
2019-05-19T09:24:29.620Z,37.29
2019-05-19T09:26:53.566Z,37.95
2019-05-19T09:32:37.565Z,38.13
2019-05-19T09:35:07.863Z,36.61
2019-05-19T09:37:41.544Z,37.62
2019-05-19T09:40:12.459Z,37.53
2019-05-19T09:42:44.165Z,37.44
2019-05-19T09:45:13.932Z,38.24
2019-05-19T09:47:47.034Z,36.38
2019-05-19T09:50:21.808Z,36.34
2019-05-19T09:52:56.195Z,35.84
2019-05-19T09:55:25.885Z,36.31
2019-05-19T09:57:56.015Z,34.71
2019-05-19T10:00:31.432Z,37.27
2019-05-19T10:03:00.355Z,35.52
2019-05-19T10:05:29.784Z,37.79
2019-05-19T10:08:01.135Z,36.49
2019-05-19T10:10:36.505Z,35.62
2019-05-19T10:13:05.817Z,33.84
2019-05-19T10:15:34.958Z,37.42
2019-05-19T10:18:09.905Z,35.87
2019-05-19T10:20:42.546Z,34.09
2019-05-19T10:23:11.616Z,34.96
2019-05-19T10:25:41.038Z,34.49
2019-05-19T10:28:16.612Z,36.11
2019-05-19T10:30:46.153Z,36.81
2019-05-19T10:33:15.049Z,37.24
2019-05-19T10:35:43.959Z,38.95
2019-05-19T10:38:13.063Z,38.35
2019-05-19T10:40:44.259Z,33.31
2019-05-19T10:43:14.498Z,37.36
2019-05-19T10:45:44.925Z,36.92
2019-05-19T10:48:14.294Z,35.63
2019-05-19T10:50:44.613Z,33.49
2019-05-19T10:53:13.507Z,34.19
2019-05-19T10:55:45.018Z,33.58
2019-05-19T10:58:13.787Z,34.95
2019-05-19T11:00:43.528Z,35.02
2019-05-19T11:03:22.282Z,32.28
2019-05-19T11:05:51.192Z,32.70
2019-05-19T11:08:24.521Z,33.66
2019-05-19T11:10:55.036Z,36.92
2019-05-19T11:13:24.983Z,30.02
2019-05-19T11:16:06.679Z,31.16
2019-05-19T11:18:37.556Z,32.24
2019-05-19T11:21:07.151Z,31.60
2019-05-19T11:23:36.269Z,32.05
2019-05-19T11:26:05.526Z,33.53
2019-05-19T11:28:34.737Z,34.64
2019-05-19T11:31:04.893Z,33.94
2019-05-19T11:33:39.871Z,32.22
2019-05-19T11:36:19.903Z,31.94
2019-05-19T11:38:53.842Z,33.09
2019-05-19T11:41:24.873Z,33.04
2019-05-19T11:43:54.260Z,32.28
2019-05-19T11:46:23.246Z,33.38
2019-05-19T11:48:52.983Z,33.68
2019-05-19T11:51:23.143Z,35.55
2019-05-19T11:53:52.661Z,38.16
2019-05-19T11:56:28.621Z,35.15
2019-05-19T11:59:04.639Z,33.93
2019-05-19T12:01:34.743Z,34.30
2019-05-19T12:04:04.059Z,32.98
2019-05-19T12:06:41.062Z,35.20
2019-05-19T12:09:16.191Z,36.27
2019-05-19T12:11:48.532Z,33.70
2019-05-19T12:14:19.366Z,33.41
2019-05-19T12:16:49.660Z,32.22
2019-05-19T12:19:18.596Z,34.12
2019-05-19T12:21:47.603Z,33.62
2019-05-19T12:24:17.873Z,34.65
2019-05-19T12:26:49.938Z,34.49
2019-05-19T12:29:22.043Z,30.75
2019-05-19T12:31:51.305Z,32.50
2019-05-19T12:34:20.398Z,33.07
2019-05-19T12:36:56.891Z,31.23
2019-05-19T12:39:25.965Z,31.61
2019-05-19T12:41:57.879Z,31.14
2019-05-19T12:44:30.032Z,31.10
2019-05-19T12:46:58.958Z,32.83
2019-05-19T12:49:38.824Z,30.71
2019-05-19T12:52:14.672Z,33.26
2019-05-19T12:54:43.875Z,33.08
2019-05-19T12:57:13.800Z,31.80
2019-05-19T12:59:42.718Z,31.47
2019-05-19T13:02:11.634Z,30.34
2019-05-19T13:05:03.566Z,29.59
2019-05-19T13:07:20.179Z,28.85
2019-05-19T13:09:49.176Z,27.52
2019-05-19T13:12:18.185Z,30.76
2019-05-19T13:14:50.249Z,27.41
2019-05-19T13:17:19.241Z,26.51
2019-05-19T13:19:48.521Z,26.00
2019-05-19T13:22:20.197Z,28.72
2019-05-19T13:24:52.138Z,26.88
2019-05-19T13:27:22.368Z,28.08
2019-05-19T13:29:51.402Z,28.14
2019-05-19T13:32:22.242Z,28.94
2019-05-19T13:34:51.354Z,28.41
2019-05-19T13:37:20.305Z,30.50
2019-05-19T13:39:56.252Z,29.37
2019-05-19T13:42:27.614Z,28.86
2019-05-19T13:44:56.479Z,29.10
2019-05-19T13:47:25.431Z,29.44
2019-05-19T13:49:57.645Z,29.94
2019-05-19T13:52:26.568Z,31.40
2019-05-19T13:54:55.569Z,30.94
2019-05-19T13:57:24.443Z,28.19
2019-05-19T13:59:53.418Z,30.15
2019-05-19T14:02:22.718Z,28.41
2019-05-19T14:05:01.810Z,31.46
2019-05-19T14:07:30.787Z,31.71
2019-05-19T14:09:59.718Z,30.14
2019-05-19T14:12:28.559Z,29.04
2019-05-19T14:14:57.598Z,31.05
2019-05-19T14:17:26.441Z,32.54
2019-05-19T14:19:58.819Z,33.47
2019-05-19T14:22:27.812Z,31.71
2019-05-19T14:24:57.729Z,34.27
2019-05-19T14:27:30.113Z,36.19
2019-05-19T14:29:57.797Z,32.52
2019-05-19T14:32:26.788Z,32.96
2019-05-19T14:34:55.951Z,31.45
2019-05-19T14:37:26.462Z,33.98
2019-05-19T14:39:55.588Z,35.61
2019-05-19T14:42:42.062Z,33.27
2019-05-19T14:45:12.037Z,33.02
2019-05-19T14:47:41.198Z,34.84
2019-05-19T14:50:10.198Z,36.13
2019-05-19T14:52:39.015Z,35.11
2019-05-19T14:55:07.870Z,34.53
2019-05-19T14:57:45.122Z,35.10
2019-05-19T15:00:12.775Z,37.03
2019-05-19T15:02:47.551Z,38.70
2019-05-19T15:05:16.404Z,38.97
2019-05-19T15:07:50.322Z,36.38
2019-05-19T15:10:22.846Z,33.92
2019-05-19T15:12:56.469Z,32.91
2019-05-19T15:15:25.298Z,34.45
2019-05-19T15:17:54.529Z,33.59
2019-05-19T15:20:24.641Z,32.60
2019-05-19T15:22:53.474Z,34.00
2019-05-19T15:25:22.507Z,33.75
2019-05-19T15:27:59.675Z,33.89
2019-05-19T15:30:25.154Z,33.07
2019-05-19T15:32:55.150Z,34.06
2019-05-19T15:35:25.543Z,33.14
2019-05-19T15:37:55.614Z,34.34
2019-05-19T15:40:24.688Z,34.95
2019-05-19T15:42:58.055Z,40.56
2019-05-19T15:45:26.920Z,35.92
2019-05-19T15:47:58.996Z,35.34
2019-05-19T15:50:27.860Z,36.39
2019-05-19T15:52:56.843Z,37.21
2019-05-19T15:55:25.714Z,35.68
2019-05-19T15:57:54.967Z,37.46
2019-05-19T16:00:23.951Z,39.34
2019-05-19T16:02:53.192Z,37.61
2019-05-19T16:05:23.350Z,39.22
2019-05-19T16:07:53.258Z,39.08
2019-05-19T16:10:22.114Z,39.56
2019-05-19T16:12:51.359Z,40.06
2019-05-19T16:15:22.995Z,40.00
2019-05-19T16:17:56.124Z,40.94
2019-05-19T16:20:25.387Z,42.02
2019-05-19T16:22:55.604Z,42.09
2019-05-19T16:25:24.460Z,44.25
2019-05-19T16:27:57.567Z,44.52
2019-05-19T16:30:26.500Z,46.53
2019-05-19T16:32:55.523Z,51.66
2019-05-19T16:35:24.596Z,54.41
2019-05-19T16:37:53.903Z,53.07
2019-05-19T16:40:23.340Z,54.32
2019-05-19T16:42:52.412Z,55.71
2019-05-19T16:45:22.784Z,53.86
2019-05-19T16:47:51.760Z,55.96
2019-05-19T16:50:21.094Z,56.11
2019-05-19T16:52:51.275Z,58.19
2019-05-19T16:55:32.022Z,58.05
2019-05-19T16:58:03.043Z,60.71
2019-05-19T17:00:37.072Z,62.55
2019-05-19T17:03:12.310Z,62.60
2019-05-19T17:05:41.272Z,61.50
2019-05-19T17:08:10.223Z,64.00
2019-05-19T17:10:39.102Z,62.95
2019-05-19T17:13:07.972Z,63.60
2019-05-19T17:15:38.890Z,54.63
2019-05-19T17:18:08.356Z,56.69
2019-05-19T17:20:37.566Z,56.04
2019-05-19T17:23:06.482Z,57.39
2019-05-19T17:25:35.339Z,55.12
2019-05-19T17:28:06.294Z,56.42
2019-05-19T17:30:35.186Z,55.93
2019-05-19T17:33:04.405Z,55.84
2019-05-19T17:35:33.261Z,56.69
2019-05-19T17:38:02.272Z,55.80
2019-05-19T17:40:31.151Z,55.57
2019-05-19T17:43:03.241Z,56.71
2019-05-19T17:45:32.132Z,56.40
2019-05-19T17:48:10.164Z,56.71
2019-05-19T17:50:33.633Z,57.32
2019-05-19T17:53:04.013Z,57.11
2019-05-19T17:55:34.000Z,57.72
2019-05-19T17:58:06.247Z,58.17
2019-05-19T18:00:37.158Z,57.95
2019-05-19T18:03:06.307Z,59.65
2019-05-19T18:05:35.321Z,60.78
2019-05-19T18:08:04.352Z,59.80
2019-05-19T18:10:33.543Z,63.26
2019-05-19T18:13:02.496Z,62.08
2019-05-19T18:15:31.389Z,61.19
2019-05-19T18:18:00.266Z,60.97
2019-05-19T18:20:29.094Z,62.62
2019-05-19T18:22:58.593Z,64.21
2019-05-19T18:25:27.596Z,64.80
2019-05-19T18:27:56.472Z,66.09
2019-05-19T18:30:25.441Z,66.79
2019-05-19T18:32:54.328Z,66.74
2019-05-19T18:35:29.079Z,66.21
2019-05-19T18:38:00.139Z,66.38
2019-05-19T18:40:38.561Z,67.44
2019-05-19T18:43:14.348Z,68.36
2019-05-19T18:45:43.286Z,68.77
2019-05-19T18:48:18.412Z,68.64
2019-05-19T18:51:03.859Z,69.09
2019-05-19T18:53:34.940Z,69.32
2019-05-19T18:56:10.483Z,68.91
2019-05-19T18:58:39.369Z,69.50
2019-05-19T19:01:08.429Z,70.46
2019-05-19T19:03:37.544Z,70.00
2019-05-19T19:06:06.770Z,70.33
2019-05-19T19:08:38.030Z,70.87
2019-05-19T19:11:06.955Z,71.33
2019-05-19T19:13:35.802Z,71.40
2019-05-19T19:16:04.750Z,70.90
2019-05-19T19:18:37.841Z,71.90
2019-05-19T19:21:06.774Z,71.73
2019-05-19T19:23:36.982Z,72.51
2019-05-19T19:26:05.929Z,72.56
2019-05-19T19:28:34.742Z,72.18
2019-05-19T19:31:03.713Z,72.12
2019-05-19T19:33:32.515Z,71.70
2019-05-19T19:36:01.661Z,72.06
2019-05-19T19:38:31.012Z,70.90
2019-05-19T19:41:00.435Z,71.62
2019-05-19T19:43:29.239Z,72.05
2019-05-19T19:45:58.074Z,71.51
2019-05-19T19:48:27.106Z,71.37
2019-05-19T19:50:56.160Z,70.97
2019-05-19T19:53:25.010Z,72.05
2019-05-19T19:55:54.945Z,71.81
2019-05-19T19:58:25.936Z,72.43
2019-05-19T20:00:56.261Z,72.17
2019-05-19T20:03:25.518Z,72.32
2019-05-19T20:05:54.458Z,74.00
2019-05-19T20:08:24.234Z,71.71
2019-05-19T20:10:56.776Z,71.62
2019-05-19T20:13:26.615Z,72.23
2019-05-19T20:15:56.687Z,73.02
2019-05-19T20:18:25.566Z,74.20
2019-05-19T20:20:54.512Z,73.65
2019-05-19T20:23:23.461Z,73.29
2019-05-19T20:25:52.347Z,74.26
2019-05-19T20:28:21.222Z,73.51
2019-05-19T20:30:51.508Z,73.34
2019-05-19T20:33:20.475Z,73.32
2019-05-19T20:35:50.389Z,74.41
2019-05-19T20:38:19.366Z,74.62
2019-05-19T20:40:48.749Z,74.13
2019-05-19T20:43:17.798Z,74.69
2019-05-19T20:45:46.654Z,74.63
2019-05-19T20:48:15.694Z,74.32
2019-05-19T20:50:44.548Z,73.19
2019-05-19T20:53:13.805Z,73.89
2019-05-19T20:55:42.977Z,74.64
2019-05-19T20:58:12.485Z,73.49
2019-05-19T21:00:50.028Z,73.58
2019-05-19T21:03:12.193Z,72.13
2019-05-19T21:05:44.351Z,72.63
2019-05-19T21:08:13.676Z,72.99
2019-05-19T21:10:42.584Z,73.01
2019-05-19T21:13:11.505Z,72.85
2019-05-19T21:15:42.074Z,73.51
2019-05-19T21:18:10.964Z,74.00
2019-05-19T21:20:39.971Z,74.36
2019-05-19T21:23:09.157Z,74.43
2019-05-19T21:25:38.075Z,74.39
2019-05-19T21:28:07.077Z,74.14
2019-05-19T21:30:36.064Z,73.71
2019-05-19T21:33:05.043Z,73.19
2019-05-19T21:35:34.461Z,72.62
2019-05-19T21:38:03.394Z,72.24
2019-05-19T21:40:32.358Z,72.19
2019-05-19T21:43:02.208Z,73.43
2019-05-19T21:45:31.102Z,72.94
2019-05-19T21:47:59.986Z,72.22
2019-05-19T21:50:28.971Z,72.83
2019-05-19T21:52:57.927Z,73.00
2019-05-19T21:55:26.760Z,72.37
2019-05-19T21:57:55.645Z,71.49
2019-05-19T22:00:30.006Z,72.02
2019-05-19T22:03:01.227Z,72.33
2019-05-19T22:05:29.999Z,73.63
2019-05-19T22:08:08.379Z,73.96
2019-05-19T22:10:37.209Z,75.32
2019-05-19T22:13:07.293Z,74.82
2019-05-19T22:15:36.423Z,73.89
2019-05-19T22:18:05.492Z,74.06
2019-05-19T22:20:34.789Z,74.10
2019-05-19T22:23:06.028Z,74.22
2019-05-19T22:25:35.089Z,74.37
2019-05-19T22:28:04.280Z,73.89
2019-05-19T22:30:33.113Z,74.54
2019-05-19T22:33:01.916Z,73.99
2019-05-19T22:35:30.818Z,74.51
2019-05-19T22:37:59.576Z,75.24
2019-05-19T22:40:30.212Z,74.56
2019-05-19T22:42:58.939Z,74.98
2019-05-19T22:45:27.763Z,75.56
2019-05-19T22:47:57.198Z,75.24
2019-05-19T22:50:26.012Z,75.14
2019-05-19T22:52:54.809Z,76.24
2019-05-19T22:55:24.012Z,75.79
2019-05-19T22:57:52.824Z,75.55
2019-05-19T23:00:22.566Z,75.54
2019-05-19T23:02:51.749Z,75.66
2019-05-19T23:05:20.467Z,75.62
2019-05-19T23:07:49.308Z,75.88
2019-05-19T23:10:18.197Z,76.67
2019-05-19T23:12:47.398Z,76.71
2019-05-19T23:15:16.552Z,76.70
2019-05-19T23:17:45.503Z,76.85
2019-05-19T23:20:14.947Z,77.17
2019-05-19T23:22:43.870Z,78.26
2019-05-19T23:25:12.739Z,77.21
2019-05-19T23:27:41.846Z,77.63
2019-05-19T23:30:10.978Z,77.29
2019-05-19T23:32:42.635Z,76.97
2019-05-19T23:35:11.978Z,76.89
2019-05-19T23:37:40.912Z,76.68
2019-05-19T23:40:10.079Z,76.40
2019-05-19T23:42:38.910Z,76.27
2019-05-19T23:45:07.774Z,76.94
2019-05-19T23:47:36.533Z,76.86
2019-05-19T23:50:05.563Z,76.35
2019-05-19T23:52:34.360Z,75.88
2019-05-19T23:55:03.408Z,75.69
2019-05-19T23:57:32.211Z,75.58
